sensor_id;sensor_type;location;lat;lon;timestamp;temperature;humidity
678;DHT22;321;48.814;9.132;2022-08-01T00:01:52;20.80;88.50
678;DHT22;321;48.814;9.132;2022-08-01T00:04:18;20.80;99.00
678;DHT22;321;48.814;9.132;2022-08-01T00:06:43;20.70;89.80
678;DHT22;321;48.814;9.132;2022-08-01T00:09:09;20.70;89.70
678;DHT22;321;48.814;9.132;2022-08-01T00:11:35;20.70;99.60
678;DHT22;321;48.814;9.132;2022-08-01T00:14:00;20.50;99.30
678;DHT22;321;48.814;9.132;2022-08-01T00:16:26;20.70;90.30
678;DHT22;321;48.814;9.132;2022-08-01T00:18:52;20.30;99.00
678;DHT22;321;48.814;9.132;2022-08-01T00:21:17;20.50;99.90
678;DHT22;321;48.814;9.132;2022-08-01T00:23:43;20.70;92.00
678;DHT22;321;48.814;9.132;2022-08-01T00:26:11;20.50;97.30
678;DHT22;321;48.814;9.132;2022-08-01T00:28:37;20.70;98.40
678;DHT22;321;48.814;9.132;2022-08-01T00:31:03;20.60;98.50
678;DHT22;321;48.814;9.132;2022-08-01T00:33:28;20.60;96.40
678;DHT22;321;48.814;9.132;2022-08-01T00:38:21;20.70;99.90
678;DHT22;321;48.814;9.132;2022-08-01T00:43:13;20.70;97.30
678;DHT22;321;48.814;9.132;2022-08-01T00:45:39;21.00;99.90
678;DHT22;321;48.814;9.132;2022-08-01T00:52:58;20.70;99.90
678;DHT22;321;48.814;9.132;2022-08-01T00:55:24;20.60;99.90
678;DHT22;321;48.814;9.132;2022-08-01T00:57:50;20.80;99.90
678;DHT22;321;48.814;9.132;2022-08-01T01:00:15;20.40;99.90
678;DHT22;321;48.814;9.132;2022-08-01T01:02:41;20.40;99.90
678;DHT22;321;48.814;9.132;2022-08-01T01:05:07;20.40;99.90
678;DHT22;321;48.814;9.132;2022-08-01T01:12:42;20.40;92.80
678;DHT22;321;48.814;9.132;2022-08-01T01:15:59;20.40;99.90
678;DHT22;321;48.814;9.132;2022-08-01T01:18:35;20.40;99.90
678;DHT22;321;48.814;9.132;2022-08-01T01:26:38;20.30;94.40
678;DHT22;321;48.814;9.132;2022-08-01T01:29:15;20.20;94.40
678;DHT22;321;48.814;9.132;2022-08-01T01:31:46;20.30;94.20
678;DHT22;321;48.814;9.132;2022-08-01T01:34:15;20.30;94.40
678;DHT22;321;48.814;9.132;2022-08-01T01:36:43;20.30;94.40
678;DHT22;321;48.814;9.132;2022-08-01T01:39:10;20.30;95.10
678;DHT22;321;48.814;9.132;2022-08-01T01:41:37;20.20;95.00
678;DHT22;321;48.814;9.132;2022-08-01T01:44:04;20.20;94.90
678;DHT22;321;48.814;9.132;2022-08-01T01:46:31;20.30;95.00
678;DHT22;321;48.814;9.132;2022-08-01T01:48:58;20.30;95.40
678;DHT22;321;48.814;9.132;2022-08-01T01:51:25;20.30;95.60
678;DHT22;321;48.814;9.132;2022-08-01T01:53:53;20.30;95.80
678;DHT22;321;48.814;9.132;2022-08-01T01:56:20;20.30;96.20
678;DHT22;321;48.814;9.132;2022-08-01T01:58:53;20.30;96.20
678;DHT22;321;48.814;9.132;2022-08-01T02:01:22;20.30;96.30
678;DHT22;321;48.814;9.132;2022-08-01T02:03:49;20.50;97.10
678;DHT22;321;48.814;9.132;2022-08-01T02:06:16;20.10;97.30
678;DHT22;321;48.814;9.132;2022-08-01T02:08:43;20.10;97.80
678;DHT22;321;48.814;9.132;2022-08-01T02:11:09;20.10;97.90
678;DHT22;321;48.814;9.132;2022-08-01T02:13:48;20.10;97.70
678;DHT22;321;48.814;9.132;2022-08-01T02:16:16;20.00;98.10
678;DHT22;321;48.814;9.132;2022-08-01T02:18:42;20.00;98.50
678;DHT22;321;48.814;9.132;2022-08-01T02:21:10;19.90;98.90
678;DHT22;321;48.814;9.132;2022-08-01T02:23:38;19.90;99.10
678;DHT22;321;48.814;9.132;2022-08-01T02:26:09;19.90;99.00
678;DHT22;321;48.814;9.132;2022-08-01T02:28:45;19.90;98.90
678;DHT22;321;48.814;9.132;2022-08-01T02:31:14;19.90;99.00
678;DHT22;321;48.814;9.132;2022-08-01T02:33:44;19.90;99.30
678;DHT22;321;48.814;9.132;2022-08-01T02:36:11;19.90;99.70
678;DHT22;321;48.814;9.132;2022-08-01T02:38:41;19.90;99.60
678;DHT22;321;48.814;9.132;2022-08-01T02:41:09;20.10;99.70
678;DHT22;321;48.814;9.132;2022-08-01T02:43:42;19.90;99.90
678;DHT22;321;48.814;9.132;2022-08-01T02:46:13;19.90;99.90
678;DHT22;321;48.814;9.132;2022-08-01T02:48:42;19.90;99.90
678;DHT22;321;48.814;9.132;2022-08-01T02:51:08;19.80;99.90
678;DHT22;321;48.814;9.132;2022-08-01T02:53:36;19.80;99.90
678;DHT22;321;48.814;9.132;2022-08-01T02:56:05;19.80;99.90
678;DHT22;321;48.814;9.132;2022-08-01T02:58:31;19.70;99.90
678;DHT22;321;48.814;9.132;2022-08-01T03:00:59;19.70;99.90
678;DHT22;321;48.814;9.132;2022-08-01T03:03:25;19.60;99.90
678;DHT22;321;48.814;9.132;2022-08-01T03:08:17;19.70;99.90
678;DHT22;321;48.814;9.132;2022-08-01T03:10:45;19.70;99.90
678;DHT22;321;48.814;9.132;2022-08-01T03:13:13;19.50;99.90
678;DHT22;321;48.814;9.132;2022-08-01T03:15:42;19.50;99.90
678;DHT22;321;48.814;9.132;2022-08-01T03:18:09;19.50;99.90
678;DHT22;321;48.814;9.132;2022-08-01T03:20:37;19.40;99.90
678;DHT22;321;48.814;9.132;2022-08-01T03:23:05;19.50;99.90
678;DHT22;321;48.814;9.132;2022-08-01T03:25:32;19.60;99.90
678;DHT22;321;48.814;9.132;2022-08-01T03:28:02;19.50;99.90
678;DHT22;321;48.814;9.132;2022-08-01T03:30:29;19.60;99.90
678;DHT22;321;48.814;9.132;2022-08-01T03:32:57;19.60;99.90
678;DHT22;321;48.814;9.132;2022-08-01T03:35:27;19.70;99.90
678;DHT22;321;48.814;9.132;2022-08-01T03:37:55;19.70;99.90
678;DHT22;321;48.814;9.132;2022-08-01T03:40:35;19.70;99.90
678;DHT22;321;48.814;9.132;2022-08-01T03:43:18;19.70;99.90
678;DHT22;321;48.814;9.132;2022-08-01T03:45:48;20.10;99.90
678;DHT22;321;48.814;9.132;2022-08-01T03:48:17;19.70;99.90
678;DHT22;321;48.814;9.132;2022-08-01T03:50:46;19.70;99.90
678;DHT22;321;48.814;9.132;2022-08-01T03:53:13;19.70;99.90
678;DHT22;321;48.814;9.132;2022-08-01T04:08:02;20.00;99.90
678;DHT22;321;48.814;9.132;2022-08-01T04:10:28;20.20;99.90
678;DHT22;321;48.814;9.132;2022-08-01T04:12:54;20.20;99.90
678;DHT22;321;48.814;9.132;2022-08-01T04:15:20;20.30;99.90
678;DHT22;321;48.814;9.132;2022-08-01T04:17:46;20.30;99.90
678;DHT22;321;48.814;9.132;2022-08-01T04:20:13;20.30;99.90
678;DHT22;321;48.814;9.132;2022-08-01T04:22:39;20.30;99.90
678;DHT22;321;48.814;9.132;2022-08-01T04:25:09;20.30;99.90
678;DHT22;321;48.814;9.132;2022-08-01T04:27:39;20.40;99.90
678;DHT22;321;48.814;9.132;2022-08-01T04:30:06;20.40;99.90
678;DHT22;321;48.814;9.132;2022-08-01T04:32:35;20.40;99.90
678;DHT22;321;48.814;9.132;2022-08-01T04:35:05;20.50;99.90
678;DHT22;321;48.814;9.132;2022-08-01T04:37:33;20.50;99.90
678;DHT22;321;48.814;9.132;2022-08-01T04:40:00;20.60;99.90
678;DHT22;321;48.814;9.132;2022-08-01T04:42:26;20.60;99.90
678;DHT22;321;48.814;9.132;2022-08-01T04:44:53;20.70;99.90
678;DHT22;321;48.814;9.132;2022-08-01T04:47:18;20.70;99.90
678;DHT22;321;48.814;9.132;2022-08-01T04:49:45;20.80;99.90
678;DHT22;321;48.814;9.132;2022-08-01T04:52:11;20.80;99.90
678;DHT22;321;48.814;9.132;2022-08-01T04:54:37;20.90;99.90
678;DHT22;321;48.814;9.132;2022-08-01T04:57:04;21.00;99.90
678;DHT22;321;48.814;9.132;2022-08-01T04:59:30;21.10;99.90
678;DHT22;321;48.814;9.132;2022-08-01T05:02:07;21.30;99.90
678;DHT22;321;48.814;9.132;2022-08-01T05:04:34;21.30;99.90
678;DHT22;321;48.814;9.132;2022-08-01T05:06:59;21.40;99.90
678;DHT22;321;48.814;9.132;2022-08-01T05:09:25;21.50;99.90
678;DHT22;321;48.814;9.132;2022-08-01T05:11:51;21.60;99.90
678;DHT22;321;48.814;9.132;2022-08-01T05:14:17;21.80;99.90
678;DHT22;321;48.814;9.132;2022-08-01T05:16:42;21.80;99.90
678;DHT22;321;48.814;9.132;2022-08-01T05:19:08;21.90;99.90
678;DHT22;321;48.814;9.132;2022-08-01T05:21:34;22.00;99.90
678;DHT22;321;48.814;9.132;2022-08-01T05:24:00;22.20;99.90
678;DHT22;321;48.814;9.132;2022-08-01T05:26:26;22.50;99.90
678;DHT22;321;48.814;9.132;2022-08-01T05:28:52;22.80;99.90
678;DHT22;321;48.814;9.132;2022-08-01T05:31:17;23.00;99.90
678;DHT22;321;48.814;9.132;2022-08-01T05:33:43;23.20;99.90
678;DHT22;321;48.814;9.132;2022-08-01T05:36:09;23.40;99.80
678;DHT22;321;48.814;9.132;2022-08-01T05:38:35;23.60;99.00
678;DHT22;321;48.814;9.132;2022-08-01T05:41:03;23.90;98.50
678;DHT22;321;48.814;9.132;2022-08-01T05:43:28;23.90;97.90
678;DHT22;321;48.814;9.132;2022-08-01T05:45:54;24.10;97.80
678;DHT22;321;48.814;9.132;2022-08-01T05:48:19;24.10;98.00
678;DHT22;321;48.814;9.132;2022-08-01T05:50:45;24.10;97.40
678;DHT22;321;48.814;9.132;2022-08-01T05:53:13;24.20;97.40
678;DHT22;321;48.814;9.132;2022-08-01T05:55:38;24.20;96.80
678;DHT22;321;48.814;9.132;2022-08-01T05:58:04;24.20;97.30
678;DHT22;321;48.814;9.132;2022-08-01T06:00:30;24.20;96.80
678;DHT22;321;48.814;9.132;2022-08-01T06:02:55;24.40;97.20
678;DHT22;321;48.814;9.132;2022-08-01T06:05:21;24.50;96.70
678;DHT22;321;48.814;9.132;2022-08-01T06:07:46;24.70;96.90
678;DHT22;321;48.814;9.132;2022-08-01T06:10:12;24.90;96.50
678;DHT22;321;48.814;9.132;2022-08-01T06:12:38;25.10;96.70
678;DHT22;321;48.814;9.132;2022-08-01T06:15:06;25.20;95.50
678;DHT22;321;48.814;9.132;2022-08-01T06:17:33;25.20;95.20
678;DHT22;321;48.814;9.132;2022-08-01T06:19:58;25.40;94.80
678;DHT22;321;48.814;9.132;2022-08-01T06:22:24;25.30;94.70
678;DHT22;321;48.814;9.132;2022-08-01T06:24:50;25.40;95.00
678;DHT22;321;48.814;9.132;2022-08-01T06:27:15;25.60;94.20
678;DHT22;321;48.814;9.132;2022-08-01T06:29:41;25.60;94.80
678;DHT22;321;48.814;9.132;2022-08-01T06:32:08;25.60;94.50
678;DHT22;321;48.814;9.132;2022-08-01T06:34:35;25.70;94.00
678;DHT22;321;48.814;9.132;2022-08-01T06:37:00;25.90;93.40
678;DHT22;321;48.814;9.132;2022-08-01T06:39:26;26.60;93.10
678;DHT22;321;48.814;9.132;2022-08-01T06:41:51;29.10;89.80
678;DHT22;321;48.814;9.132;2022-08-01T06:44:17;31.50;79.80
678;DHT22;321;48.814;9.132;2022-08-01T06:46:42;32.20;73.40
678;DHT22;321;48.814;9.132;2022-08-01T06:49:08;34.00;69.50
678;DHT22;321;48.814;9.132;2022-08-01T06:51:34;35.90;62.00
678;DHT22;321;48.814;9.132;2022-08-01T06:53:59;37.50;56.80
678;DHT22;321;48.814;9.132;2022-08-01T06:56:25;39.00;52.20
678;DHT22;321;48.814;9.132;2022-08-01T06:58:50;39.40;50.50
678;DHT22;321;48.814;9.132;2022-08-01T07:01:16;40.40;49.10
678;DHT22;321;48.814;9.132;2022-08-01T07:03:42;40.80;47.00
678;DHT22;321;48.814;9.132;2022-08-01T07:06:07;40.30;47.10
678;DHT22;321;48.814;9.132;2022-08-01T07:08:33;38.90;47.80
678;DHT22;321;48.814;9.132;2022-08-01T07:10:58;38.40;48.10
678;DHT22;321;48.814;9.132;2022-08-01T07:13:28;37.30;49.00
678;DHT22;321;48.814;9.132;2022-08-01T07:15:56;35.80;50.70
678;DHT22;321;48.814;9.132;2022-08-01T07:18:22;34.60;53.10
678;DHT22;321;48.814;9.132;2022-08-01T07:20:48;34.20;55.10
678;DHT22;321;48.814;9.132;2022-08-01T07:23:13;34.30;55.30
678;DHT22;321;48.814;9.132;2022-08-01T07:25:39;34.30;54.90
678;DHT22;321;48.814;9.132;2022-08-01T07:28:05;34.00;54.80
678;DHT22;321;48.814;9.132;2022-08-01T07:30:30;33.90;54.70
678;DHT22;321;48.814;9.132;2022-08-01T07:32:56;33.50;55.80
678;DHT22;321;48.814;9.132;2022-08-01T07:35:22;33.00;57.90
678;DHT22;321;48.814;9.132;2022-08-01T07:37:47;33.50;56.70
678;DHT22;321;48.814;9.132;2022-08-01T07:40:13;34.00;55.00
678;DHT22;321;48.814;9.132;2022-08-01T07:42:39;35.00;53.90
678;DHT22;321;48.814;9.132;2022-08-01T07:45:09;37.30;51.30
678;DHT22;321;48.814;9.132;2022-08-01T07:47:35;39.40;49.20
678;DHT22;321;48.814;9.132;2022-08-01T07:50:02;41.50;45.60
678;DHT22;321;48.814;9.132;2022-08-01T07:52:28;43.50;42.50
678;DHT22;321;48.814;9.132;2022-08-01T07:54:55;44.30;40.00
678;DHT22;321;48.814;9.132;2022-08-01T07:57:22;44.70;38.70
678;DHT22;321;48.814;9.132;2022-08-01T07:59:47;44.50;38.00
678;DHT22;321;48.814;9.132;2022-08-01T08:02:13;43.30;38.50
678;DHT22;321;48.814;9.132;2022-08-01T08:04:39;42.20;40.00
678;DHT22;321;48.814;9.132;2022-08-01T08:07:04;41.40;40.70
678;DHT22;321;48.814;9.132;2022-08-01T08:09:30;41.10;42.10
678;DHT22;321;48.814;9.132;2022-08-01T08:11:56;41.40;42.20
678;DHT22;321;48.814;9.132;2022-08-01T08:14:21;41.90;41.00
678;DHT22;321;48.814;9.132;2022-08-01T08:16:49;40.60;41.30
678;DHT22;321;48.814;9.132;2022-08-01T08:19:15;39.10;42.90
678;DHT22;321;48.814;9.132;2022-08-01T08:21:41;38.20;45.20
678;DHT22;321;48.814;9.132;2022-08-01T08:24:10;37.10;47.90
678;DHT22;321;48.814;9.132;2022-08-01T08:26:51;36.50;48.90
678;DHT22;321;48.814;9.132;2022-08-01T08:29:19;35.50;49.60
678;DHT22;321;48.814;9.132;2022-08-01T08:31:45;35.00;51.70
678;DHT22;321;48.814;9.132;2022-08-01T08:34:11;34.60;51.30
678;DHT22;321;48.814;9.132;2022-08-01T08:36:37;34.40;51.60
678;DHT22;321;48.814;9.132;2022-08-01T08:39:03;34.60;52.20
678;DHT22;321;48.814;9.132;2022-08-01T08:41:30;34.60;51.50
678;DHT22;321;48.814;9.132;2022-08-01T08:43:56;34.50;52.30
678;DHT22;321;48.814;9.132;2022-08-01T08:46:23;34.10;53.30
678;DHT22;321;48.814;9.132;2022-08-01T08:48:51;33.80;53.50
678;DHT22;321;48.814;9.132;2022-08-01T08:51:17;34.00;53.90
678;DHT22;321;48.814;9.132;2022-08-01T08:53:45;33.90;53.10
678;DHT22;321;48.814;9.132;2022-08-01T08:56:12;33.80;53.40
678;DHT22;321;48.814;9.132;2022-08-01T08:58:38;33.80;53.70
678;DHT22;321;48.814;9.132;2022-08-01T09:01:06;33.50;53.90
678;DHT22;321;48.814;9.132;2022-08-01T09:03:34;33.20;55.10
678;DHT22;321;48.814;9.132;2022-08-01T09:05:59;32.70;55.40
678;DHT22;321;48.814;9.132;2022-08-01T09:08:25;32.50;56.80
678;DHT22;321;48.814;9.132;2022-08-01T09:10:51;32.60;56.20
678;DHT22;321;48.814;9.132;2022-08-01T09:13:16;32.80;56.40
678;DHT22;321;48.814;9.132;2022-08-01T09:15:53;33.00;55.40
678;DHT22;321;48.814;9.132;2022-08-01T09:18:28;33.10;55.20
678;DHT22;321;48.814;9.132;2022-08-01T09:23:37;33.00;55.20
678;DHT22;321;48.814;9.132;2022-08-01T09:26:08;32.70;55.70
678;DHT22;321;48.814;9.132;2022-08-01T09:28:34;32.50;56.00
678;DHT22;321;48.814;9.132;2022-08-01T09:31:06;32.00;56.40
678;DHT22;321;48.814;9.132;2022-08-01T09:33:59;31.70;58.00
678;DHT22;321;48.814;9.132;2022-08-01T09:36:43;31.90;58.40
678;DHT22;321;48.814;9.132;2022-08-01T09:39:13;32.50;57.00
678;DHT22;321;48.814;9.132;2022-08-01T09:41:39;32.70;56.70
678;DHT22;321;48.814;9.132;2022-08-01T09:44:05;33.00;55.90
678;DHT22;321;48.814;9.132;2022-08-01T09:46:31;32.90;55.40
678;DHT22;321;48.814;9.132;2022-08-01T09:49:02;32.50;56.00
678;DHT22;321;48.814;9.132;2022-08-01T09:51:33;32.20;57.40
678;DHT22;321;48.814;9.132;2022-08-01T09:54:00;32.00;58.20
678;DHT22;321;48.814;9.132;2022-08-01T09:56:26;31.90;58.40
678;DHT22;321;48.814;9.132;2022-08-01T09:58:54;31.90;58.70
678;DHT22;321;48.814;9.132;2022-08-01T10:01:23;31.80;57.20
678;DHT22;321;48.814;9.132;2022-08-01T10:04:12;31.80;58.00
678;DHT22;321;48.814;9.132;2022-08-01T10:06:40;31.70;57.50
678;DHT22;321;48.814;9.132;2022-08-01T10:09:08;31.80;57.80
678;DHT22;321;48.814;9.132;2022-08-01T10:11:34;32.90;56.80
678;DHT22;321;48.814;9.132;2022-08-01T10:14:04;34.10;55.00
678;DHT22;321;48.814;9.132;2022-08-01T10:16:30;35.40;53.10
678;DHT22;321;48.814;9.132;2022-08-01T10:18:57;36.80;50.20
678;DHT22;321;48.814;9.132;2022-08-01T10:21:26;37.80;48.60
678;DHT22;321;48.814;9.132;2022-08-01T10:23:54;38.10;47.50
678;DHT22;321;48.814;9.132;2022-08-01T10:26:21;37.90;46.90
678;DHT22;321;48.814;9.132;2022-08-01T10:28:50;37.30;47.50
678;DHT22;321;48.814;9.132;2022-08-01T10:31:17;37.50;47.70
678;DHT22;321;48.814;9.132;2022-08-01T10:33:44;37.60;46.90
678;DHT22;321;48.814;9.132;2022-08-01T10:36:10;37.50;47.20
678;DHT22;321;48.814;9.132;2022-08-01T10:38:36;37.90;46.50
678;DHT22;321;48.814;9.132;2022-08-01T10:41:03;38.40;46.40
678;DHT22;321;48.814;9.132;2022-08-01T10:43:29;38.40;45.70
678;DHT22;321;48.814;9.132;2022-08-01T10:45:55;38.70;45.00
678;DHT22;321;48.814;9.132;2022-08-01T10:48:43;39.00;44.10
678;DHT22;321;48.814;9.132;2022-08-01T10:51:11;38.80;44.40
678;DHT22;321;48.814;9.132;2022-08-01T10:53:46;39.10;45.00
678;DHT22;321;48.814;9.132;2022-08-01T10:56:12;39.20;44.60
678;DHT22;321;48.814;9.132;2022-08-01T10:58:39;39.70;43.70
678;DHT22;321;48.814;9.132;2022-08-01T11:04:08;40.00;42.90
678;DHT22;321;48.814;9.132;2022-08-01T11:09:24;40.30;41.80
678;DHT22;321;48.814;9.132;2022-08-01T11:14:25;40.80;41.10
678;DHT22;321;48.814;9.132;2022-08-01T11:16:51;40.80;40.50
678;DHT22;321;48.814;9.132;2022-08-01T11:19:17;40.20;41.00
678;DHT22;321;48.814;9.132;2022-08-01T11:27:20;39.60;42.30
678;DHT22;321;48.814;9.132;2022-08-01T11:32:51;39.60;41.70
678;DHT22;321;48.814;9.132;2022-08-01T11:35:18;38.90;42.60
678;DHT22;321;48.814;9.132;2022-08-01T11:37:49;38.60;43.20
678;DHT22;321;48.814;9.132;2022-08-01T11:40:17;38.50;44.00
678;DHT22;321;48.814;9.132;2022-08-01T11:42:43;38.60;43.50
678;DHT22;321;48.814;9.132;2022-08-01T11:45:09;38.80;43.30
678;DHT22;321;48.814;9.132;2022-08-01T11:47:46;39.10;42.70
678;DHT22;321;48.814;9.132;2022-08-01T11:50:32;38.90;42.80
678;DHT22;321;48.814;9.132;2022-08-01T11:53:05;38.80;42.80
678;DHT22;321;48.814;9.132;2022-08-01T11:55:32;39.20;42.20
678;DHT22;321;48.814;9.132;2022-08-01T11:58:01;39.50;42.10
678;DHT22;321;48.814;9.132;2022-08-01T12:00:28;39.70;41.60
678;DHT22;321;48.814;9.132;2022-08-01T12:03:03;39.00;41.80
678;DHT22;321;48.814;9.132;2022-08-01T12:05:31;37.80;43.00
678;DHT22;321;48.814;9.132;2022-08-01T12:07:58;36.70;44.30
678;DHT22;321;48.814;9.132;2022-08-01T12:10:26;36.20;45.40
678;DHT22;321;48.814;9.132;2022-08-01T12:12:56;35.60;46.80
678;DHT22;321;48.814;9.132;2022-08-01T12:15:24;34.80;48.00
678;DHT22;321;48.814;9.132;2022-08-01T12:17:57;34.40;49.30
678;DHT22;321;48.814;9.132;2022-08-01T12:20:24;34.10;50.10
678;DHT22;321;48.814;9.132;2022-08-01T12:22:54;34.00;51.20
678;DHT22;321;48.814;9.132;2022-08-01T12:25:20;33.70;51.30
678;DHT22;321;48.814;9.132;2022-08-01T12:27:47;33.40;51.40
678;DHT22;321;48.814;9.132;2022-08-01T12:30:21;33.20;52.00
678;DHT22;321;48.814;9.132;2022-08-01T12:32:51;32.90;52.10
678;DHT22;321;48.814;9.132;2022-08-01T12:35:20;32.70;52.20
678;DHT22;321;48.814;9.132;2022-08-01T12:37:51;32.40;53.00
678;DHT22;321;48.814;9.132;2022-08-01T12:40:22;32.10;54.00
678;DHT22;321;48.814;9.132;2022-08-01T12:42:53;31.60;55.00
678;DHT22;321;48.814;9.132;2022-08-01T12:45:22;31.40;55.10
678;DHT22;321;48.814;9.132;2022-08-01T12:47:51;31.10;55.90
678;DHT22;321;48.814;9.132;2022-08-01T12:50:22;31.10;56.00
678;DHT22;321;48.814;9.132;2022-08-01T12:52:49;30.90;55.60
678;DHT22;321;48.814;9.132;2022-08-01T12:55:16;30.60;56.50
678;DHT22;321;48.814;9.132;2022-08-01T12:57:47;30.50;56.90
678;DHT22;321;48.814;9.132;2022-08-01T13:00:20;30.40;57.20
678;DHT22;321;48.814;9.132;2022-08-01T13:02:47;30.40;57.50
678;DHT22;321;48.814;9.132;2022-08-01T13:05:15;30.20;58.30
678;DHT22;321;48.814;9.132;2022-08-01T13:07:48;30.00;58.70
678;DHT22;321;48.814;9.132;2022-08-01T13:10:24;29.70;58.60
678;DHT22;321;48.814;9.132;2022-08-01T13:12:56;29.20;60.10
678;DHT22;321;48.814;9.132;2022-08-01T13:15:23;29.40;61.90
678;DHT22;321;48.814;9.132;2022-08-01T13:17:50;29.80;60.20
678;DHT22;321;48.814;9.132;2022-08-01T13:20:30;30.20;59.70
678;DHT22;321;48.814;9.132;2022-08-01T13:23:17;30.50;58.70
678;DHT22;321;48.814;9.132;2022-08-01T13:26:09;30.50;57.90
678;DHT22;321;48.814;9.132;2022-08-01T13:28:34;30.60;58.40
678;DHT22;321;48.814;9.132;2022-08-01T13:31:05;30.70;57.80
678;DHT22;321;48.814;9.132;2022-08-01T13:33:44;30.60;57.20
678;DHT22;321;48.814;9.132;2022-08-01T13:36:10;30.60;57.60
678;DHT22;321;48.814;9.132;2022-08-01T13:38:36;30.50;57.60
678;DHT22;321;48.814;9.132;2022-08-01T13:41:20;30.40;57.40
678;DHT22;321;48.814;9.132;2022-08-01T13:43:46;30.30;57.90
678;DHT22;321;48.814;9.132;2022-08-01T13:46:11;30.40;58.10
678;DHT22;321;48.814;9.132;2022-08-01T13:48:37;30.30;58.70
678;DHT22;321;48.814;9.132;2022-08-01T13:51:02;30.10;58.40
678;DHT22;321;48.814;9.132;2022-08-01T13:53:28;30.10;58.90
678;DHT22;321;48.814;9.132;2022-08-01T13:55:54;30.30;59.20
678;DHT22;321;48.814;9.132;2022-08-01T13:58:20;30.30;58.80
678;DHT22;321;48.814;9.132;2022-08-01T14:00:45;30.40;58.50
678;DHT22;321;48.814;9.132;2022-08-01T14:03:11;30.40;58.40
678;DHT22;321;48.814;9.132;2022-08-01T14:05:37;30.50;58.60
678;DHT22;321;48.814;9.132;2022-08-01T14:08:03;30.50;58.60
678;DHT22;321;48.814;9.132;2022-08-01T14:10:29;30.60;58.50
678;DHT22;321;48.814;9.132;2022-08-01T14:12:55;30.70;58.00
678;DHT22;321;48.814;9.132;2022-08-01T14:15:21;30.80;57.40
678;DHT22;321;48.814;9.132;2022-08-01T14:17:47;31.00;57.40
678;DHT22;321;48.814;9.132;2022-08-01T14:20:13;30.90;57.10
678;DHT22;321;48.814;9.132;2022-08-01T14:22:38;30.90;56.60
678;DHT22;321;48.814;9.132;2022-08-01T14:25:06;30.90;56.90
678;DHT22;321;48.814;9.132;2022-08-01T14:27:31;30.80;57.10
678;DHT22;321;48.814;9.132;2022-08-01T14:30:01;30.60;57.50
678;DHT22;321;48.814;9.132;2022-08-01T14:32:27;30.50;58.00
678;DHT22;321;48.814;9.132;2022-08-01T14:34:52;30.40;58.00
678;DHT22;321;48.814;9.132;2022-08-01T14:37:18;30.30;58.20
678;DHT22;321;48.814;9.132;2022-08-01T14:39:44;30.50;58.10
678;DHT22;321;48.814;9.132;2022-08-01T14:42:09;30.60;58.10
678;DHT22;321;48.814;9.132;2022-08-01T14:44:35;30.50;58.20
678;DHT22;321;48.814;9.132;2022-08-01T14:47:00;30.30;58.20
678;DHT22;321;48.814;9.132;2022-08-01T14:49:26;30.10;58.70
678;DHT22;321;48.814;9.132;2022-08-01T14:51:51;30.00;59.10
678;DHT22;321;48.814;9.132;2022-08-01T14:54:17;30.00;59.40
678;DHT22;321;48.814;9.132;2022-08-01T14:56:42;29.90;59.60
678;DHT22;321;48.814;9.132;2022-08-01T14:59:08;29.90;59.00
678;DHT22;321;48.814;9.132;2022-08-01T15:01:34;30.00;58.60
678;DHT22;321;48.814;9.132;2022-08-01T15:03:59;30.10;58.70
678;DHT22;321;48.814;9.132;2022-08-01T15:06:25;30.10;57.80
678;DHT22;321;48.814;9.132;2022-08-01T15:08:50;30.10;57.90
678;DHT22;321;48.814;9.132;2022-08-01T15:11:16;30.20;58.10
678;DHT22;321;48.814;9.132;2022-08-01T15:13:41;30.20;58.10
678;DHT22;321;48.814;9.132;2022-08-01T15:16:07;30.20;58.00
678;DHT22;321;48.814;9.132;2022-08-01T15:18:35;30.20;58.10
678;DHT22;321;48.814;9.132;2022-08-01T15:21:00;30.20;58.50
678;DHT22;321;48.814;9.132;2022-08-01T15:23:26;30.30;58.20
678;DHT22;321;48.814;9.132;2022-08-01T15:25:52;30.20;58.10
678;DHT22;321;48.814;9.132;2022-08-01T15:28:17;30.10;58.10
678;DHT22;321;48.814;9.132;2022-08-01T15:30:43;30.00;58.80
678;DHT22;321;48.814;9.132;2022-08-01T15:33:08;29.80;58.40
678;DHT22;321;48.814;9.132;2022-08-01T15:35:34;29.80;58.20
678;DHT22;321;48.814;9.132;2022-08-01T15:37:59;29.70;57.50
678;DHT22;321;48.814;9.132;2022-08-01T15:40:28;29.60;58.20
678;DHT22;321;48.814;9.132;2022-08-01T15:42:53;29.50;58.70
678;DHT22;321;48.814;9.132;2022-08-01T15:45:19;29.40;59.00
678;DHT22;321;48.814;9.132;2022-08-01T15:47:46;29.40;59.20
678;DHT22;321;48.814;9.132;2022-08-01T15:50:11;29.30;59.40
678;DHT22;321;48.814;9.132;2022-08-01T15:52:37;29.30;59.10
678;DHT22;321;48.814;9.132;2022-08-01T15:55:03;29.20;59.30
678;DHT22;321;48.814;9.132;2022-08-01T15:57:29;29.20;59.30
678;DHT22;321;48.814;9.132;2022-08-01T15:59:55;29.20;59.10
678;DHT22;321;48.814;9.132;2022-08-01T16:02:20;29.20;59.30
678;DHT22;321;48.814;9.132;2022-08-01T16:04:46;29.20;59.20
678;DHT22;321;48.814;9.132;2022-08-01T16:07:11;29.20;59.60
678;DHT22;321;48.814;9.132;2022-08-01T16:09:37;29.20;59.60
678;DHT22;321;48.814;9.132;2022-08-01T16:12:03;29.20;59.00
678;DHT22;321;48.814;9.132;2022-08-01T16:14:28;29.30;59.30
678;DHT22;321;48.814;9.132;2022-08-01T16:16:54;29.40;59.40
678;DHT22;321;48.814;9.132;2022-08-01T16:19:20;29.50;58.80
678;DHT22;321;48.814;9.132;2022-08-01T16:21:46;29.40;59.00
678;DHT22;321;48.814;9.132;2022-08-01T16:24:11;29.30;58.70
678;DHT22;321;48.814;9.132;2022-08-01T16:26:37;29.40;59.10
678;DHT22;321;48.814;9.132;2022-08-01T16:29:02;29.40;59.30
678;DHT22;321;48.814;9.132;2022-08-01T16:31:28;29.30;59.20
678;DHT22;321;48.814;9.132;2022-08-01T16:33:54;29.30;59.20
678;DHT22;321;48.814;9.132;2022-08-01T16:36:19;29.10;59.60
678;DHT22;321;48.814;9.132;2022-08-01T16:38:45;29.10;59.60
678;DHT22;321;48.814;9.132;2022-08-01T16:41:11;29.10;59.80
678;DHT22;321;48.814;9.132;2022-08-01T16:43:36;29.00;59.50
678;DHT22;321;48.814;9.132;2022-08-01T16:46:02;28.90;59.90
678;DHT22;321;48.814;9.132;2022-08-01T16:48:29;28.90;59.20
678;DHT22;321;48.814;9.132;2022-08-01T16:50:54;28.90;59.70
678;DHT22;321;48.814;9.132;2022-08-01T16:53:21;28.90;59.80
678;DHT22;321;48.814;9.132;2022-08-01T16:55:47;28.90;60.00
678;DHT22;321;48.814;9.132;2022-08-01T16:58:14;29.00;61.20
678;DHT22;321;48.814;9.132;2022-08-01T17:00:41;29.00;60.20
678;DHT22;321;48.814;9.132;2022-08-01T17:03:12;29.00;60.60
678;DHT22;321;48.814;9.132;2022-08-01T17:05:38;28.80;61.00
678;DHT22;321;48.814;9.132;2022-08-01T17:08:05;28.70;61.40
678;DHT22;321;48.814;9.132;2022-08-01T17:10:31;28.70;61.80
678;DHT22;321;48.814;9.132;2022-08-01T17:12:56;28.70;61.70
678;DHT22;321;48.814;9.132;2022-08-01T17:15:22;28.60;61.70
678;DHT22;321;48.814;9.132;2022-08-01T17:17:48;28.50;62.00
678;DHT22;321;48.814;9.132;2022-08-01T17:20:15;28.30;62.60
678;DHT22;321;48.814;9.132;2022-08-01T17:22:41;28.30;62.50
678;DHT22;321;48.814;9.132;2022-08-01T17:25:08;28.30;63.00
678;DHT22;321;48.814;9.132;2022-08-01T17:27:33;28.30;63.50
678;DHT22;321;48.814;9.132;2022-08-01T17:29:59;28.30;63.00
678;DHT22;321;48.814;9.132;2022-08-01T17:32:24;28.30;62.60